Time;durP1;ratioP1;P1;durP2;ratioP2;P2;SDS_P1;SDS_P2;PMS_P1;PMS_P2;Temp;Humidity;BMP_temperature;BMP_pressure;BME280_temperature;BME280_humidity;BME280_pressure;Samples;Min_cycle;Max_cycle;Signal;HPM_P1;HPM_P2
2021/07/06 00:02:12;;;;;;;7.13;6.20;;;17.70;99.90;;;;;;5072390;28;20161;-72
2021/07/06 00:04:37;;;;;;;10.98;6.93;;;17.60;99.90;;;;;;5073130;28;20036;-73
2021/07/06 00:07:03;;;;;;;6.88;6.25;;;17.70;99.90;;;;;;5073376;28;20032;-72
2021/07/06 00:09:29;;;;;;;7.57;5.95;;;17.70;99.90;;;;;;5079266;28;20025;-73
2021/07/06 00:11:54;;;;;;;6.45;5.78;;;17.70;99.90;;;;;;5082245;28;20020;-72
2021/07/06 00:14:20;;;;;;;10.38;6.05;;;17.60;99.90;;;;;;5077588;28;20376;-72
2021/07/06 00:16:46;;;;;;;7.30;6.50;;;17.70;99.90;;;;;;5072381;28;20082;-73
2021/07/06 00:19:11;;;;;;;7.97;6.65;;;17.70;99.90;;;;;;5072972;28;20012;-73
2021/07/06 00:21:37;;;;;;;7.68;6.82;;;17.60;99.90;;;;;;5072470;28;20028;-73
2021/07/06 00:24:03;;;;;;;6.53;5.95;;;17.60;99.90;;;;;;5072309;28;20021;-72
2021/07/06 00:26:29;;;;;;;7.18;6.05;;;17.60;99.90;;;;;;5086611;28;20021;-73
2021/07/06 00:28:54;;;;;;;7.82;6.03;;;17.60;99.90;;;;;;5072926;28;20021;-72
2021/07/06 00:31:20;;;;;;;7.25;6.65;;;17.60;99.90;;;;;;5071295;28;20085;-73
2021/07/06 00:33:45;;;;;;;6.82;6.15;;;17.60;99.90;;;;;;5072813;28;20077;-73
2021/07/06 00:36:11;;;;;;;9.35;6.32;;;17.60;99.90;;;;;;5072533;28;20107;-72
2021/07/06 00:38:37;;;;;;;6.47;5.90;;;17.60;99.90;;;;;;5071416;28;20028;-73
2021/07/06 00:41:03;;;;;;;7.25;6.55;;;17.60;99.90;;;;;;5072391;28;20036;-73
2021/07/06 00:43:29;;;;;;;6.72;6.13;;;17.50;99.90;;;;;;5072292;28;20016;-73
2021/07/06 00:45:56;;;;;;;6.47;5.97;;;17.50;99.90;;;;;;5071846;28;20033;-72
2021/07/06 00:48:23;;;;;;;6.85;6.20;;;17.50;99.90;;;;;;5071834;28;20423;-73
2021/07/06 00:50:52;;;;;;;6.32;5.57;;;17.60;99.90;;;;;;5072383;28;20413;-72
2021/07/06 00:53:17;;;;;;;7.15;6.45;;;17.50;99.90;;;;;;5071388;28;20025;-73
2021/07/06 00:55:45;;;;;;;6.88;6.28;;;17.50;99.90;;;;;;5072179;28;20016;-72
2021/07/06 00:58:16;;;;;;;10.15;5.97;;;17.60;99.90;;;;;;5071872;28;20111;-72
2021/07/06 01:00:41;;;;;;;;;;;17.50;99.90;;;;;;5072400;28;20018;-72
2021/07/06 01:03:07;;;;;;;7.07;5.65;;;17.60;99.90;;;;;;5082517;28;19995;-72
2021/07/06 01:05:32;;;;;;;6.72;6.10;;;17.50;99.90;;;;;;5074408;28;20032;-72
2021/07/06 01:07:58;;;;;;;6.20;5.00;;;17.60;99.90;;;;;;5071860;28;20017;-72
2021/07/06 01:10:24;;;;;;;6.00;5.43;;;17.50;99.90;;;;;;5072064;28;20085;-72
2021/07/06 01:12:52;;;;;;;6.40;5.80;;;17.50;99.90;;;;;;5085761;28;21157;-72
2021/07/06 01:15:20;;;;;;;6.07;5.53;;;17.60;99.90;;;;;;5071919;28;20028;-72
2021/07/06 01:17:57;;;;;;;7.93;5.38;;;17.60;99.90;;;;;;5071794;28;20033;-72
2021/07/06 01:20:23;;;;;;;8.18;5.25;;;17.50;99.90;;;;;;5071137;28;20025;-72
2021/07/06 01:22:49;;;;;;;7.22;4.90;;;17.60;99.90;;;;;;5072170;28;20028;-72
2021/07/06 01:25:15;;;;;;;6.75;5.15;;;17.60;99.90;;;;;;5072052;28;20123;-72
2021/07/06 01:27:41;;;;;;;6.38;4.40;;;17.50;99.90;;;;;;5070888;28;20107;-72
2021/07/06 01:30:11;;;;;;;5.45;4.10;;;17.50;99.90;;;;;;5071673;28;20534;-72
2021/07/06 01:32:40;;;;;;;4.22;3.72;;;17.50;99.90;;;;;;5071714;28;20059;-72
2021/07/06 01:35:08;;;;;;;4.35;3.95;;;17.50;99.90;;;;;;5070974;28;20365;-72
2021/07/06 01:37:33;;;;;;;4.63;4.00;;;17.50;99.90;;;;;;5071477;28;20025;-72
2021/07/06 01:39:59;;;;;;;3.78;3.53;;;17.50;99.90;;;;;;5071632;28;20380;-72
2021/07/06 01:42:27;;;;;;;4.22;3.17;;;17.50;99.90;;;;;;5071945;28;20028;-72
2021/07/06 01:45:07;;;;;;;7.47;3.17;;;17.50;99.90;;;;;;5075682;28;20496;-72
2021/07/06 01:47:36;;;;;;;6.25;4.03;;;17.40;99.90;;;;;;5074730;28;20052;-72
2021/07/06 01:50:02;;;;;;;8.35;3.35;;;17.40;99.90;;;;;;5075942;28;20056;-72
2021/07/06 01:52:28;;;;;;;3.42;3.13;;;17.40;99.90;;;;;;5075699;28;20028;-72
2021/07/06 01:54:53;;;;;;;2.90;2.70;;;17.40;99.90;;;;;;5075205;28;20020;-72
2021/07/06 01:57:24;;;;;;;3.40;3.10;;;17.40;99.90;;;;;;5075277;28;20477;-72
2021/07/06 01:59:49;;;;;;;;;;;17.40;99.90;;;;;;5075993;28;20476;-71
2021/07/06 02:02:15;;;;;;;2.97;2.75;;;17.40;99.90;;;;;;5074720;28;19987;-72
2021/07/06 02:04:41;;;;;;;3.47;3.17;;;17.40;99.90;;;;;;5075398;28;20537;-72
2021/07/06 02:07:06;;;;;;;6.70;3.08;;;17.40;99.90;;;;;;5075568;28;20472;-72
2021/07/06 02:09:32;;;;;;;4.55;2.90;;;17.40;99.90;;;;;;5075442;28;20457;-71
2021/07/06 02:11:57;;;;;;;2.90;2.65;;;17.40;99.90;;;;;;5089942;28;20032;-71
2021/07/06 02:14:23;;;;;;;5.32;2.80;;;17.40;99.90;;;;;;5079679;28;20029;-71
2021/07/06 02:16:48;;;;;;;8.50;2.55;;;17.40;99.90;;;;;;5075150;28;20073;-72
2021/07/06 02:19:14;;;;;;;2.63;2.42;;;17.40;99.90;;;;;;5075495;28;20029;-70
2021/07/06 02:21:39;;;;;;;2.50;2.25;;;17.40;99.90;;;;;;5074837;28;20031;-71
2021/07/06 02:24:06;;;;;;;3.30;2.22;;;17.30;99.90;;;;;;5074710;28;20021;-72
2021/07/06 02:26:31;;;;;;;2.47;2.28;;;17.40;99.90;;;;;;5074574;28;20020;-73
2021/07/06 02:28:57;;;;;;;3.38;2.28;;;17.40;99.90;;;;;;5075199;28;20084;-72
2021/07/06 02:31:22;;;;;;;2.58;2.10;;;17.40;99.90;;;;;;5074001;28;20507;-72
2021/07/06 02:33:48;;;;;;;2.72;2.40;;;17.30;99.90;;;;;;5074957;28;20024;-72
2021/07/06 02:36:14;;;;;;;3.40;2.03;;;17.40;99.90;;;;;;5076134;28;20020;-72
2021/07/06 02:38:39;;;;;;;2.90;2.00;;;17.30;99.90;;;;;;5074060;28;20035;-72
2021/07/06 02:41:05;;;;;;;2.03;1.92;;;17.30;99.90;;;;;;5074904;28;20109;-72
2021/07/06 02:43:31;;;;;;;2.17;1.70;;;17.30;99.90;;;;;;5074075;28;20030;-73
2021/07/06 02:45:57;;;;;;;1.98;1.77;;;17.30;99.90;;;;;;5074490;28;20036;-72
2021/07/06 02:48:23;;;;;;;1.90;1.80;;;17.30;99.90;;;;;;5073626;28;20079;-72
2021/07/06 02:50:49;;;;;;;1.67;1.58;;;17.30;99.90;;;;;;5074134;28;20115;-72
2021/07/06 02:53:14;;;;;;;5.18;2.33;;;17.20;99.90;;;;;;5074069;28;20107;-73
2021/07/06 02:55:40;;;;;;;2.25;2.13;;;17.10;99.90;;;;;;5073074;28;20016;-72
2021/07/06 02:58:06;;;;;;;8.35;2.38;;;17.20;99.90;;;;;;5078856;28;20060;-72
2021/07/06 03:00:33;;;;;;;2.83;2.58;;;17.10;99.90;;;;;;5091952;28;20023;-72
2021/07/06 03:03:02;;;;;;;2.67;2.47;;;17.10;99.90;;;;;;5090196;28;20070;-72
2021/07/06 03:05:30;;;;;;;4.75;3.30;;;17.10;99.90;;;;;;5080150;28;20037;-72
2021/07/06 03:07:56;;;;;;;3.17;2.97;;;17.10;99.90;;;;;;5084883;28;20027;-72
2021/07/06 03:10:31;;;;;;;3.25;2.90;;;17.10;99.90;;;;;;5075231;28;20024;-73
2021/07/06 03:12:57;;;;;;;3.08;2.88;;;17.10;99.90;;;;;;5072405;28;20358;-73
2021/07/06 03:15:26;;;;;;;4.72;2.42;;;17.10;99.90;;;;;;5089662;28;20040;-73
2021/07/06 03:17:52;;;;;;;3.83;2.55;;;17.10;99.90;;;;;;5084327;28;20095;-72
2021/07/06 03:20:20;;;;;;;2.35;2.25;;;17.10;99.90;;;;;;5072067;28;20051;-72
2021/07/06 03:22:46;;;;;;;7.30;2.22;;;17.10;99.90;;;;;;5073079;28;20326;-73
2021/07/06 03:25:14;;;;;;;3.53;2.20;;;17.10;99.90;;;;;;5072945;28;20075;-73
2021/07/06 03:27:41;;;;;;;5.50;2.20;;;17.10;99.90;;;;;;5071762;28;20021;-73
2021/07/06 03:30:12;;;;;;;2.50;2.30;;;17.10;99.90;;;;;;5072772;28;20383;-74
2021/07/06 03:32:38;;;;;;;4.15;2.28;;;17.10;99.90;;;;;;5076363;28;20483;-73
2021/07/06 03:35:06;;;;;;;3.05;2.00;;;17.10;99.90;;;;;;5082105;28;20070;-73
2021/07/06 03:37:31;;;;;;;9.68;1.98;;;17.00;99.90;;;;;;5072182;28;20028;-72
2021/07/06 03:39:57;;;;;;;2.28;1.90;;;17.10;99.90;;;;;;5071892;28;20035;-72
2021/07/06 03:42:25;;;;;;;3.67;1.85;;;17.10;99.90;;;;;;5072405;28;20047;-72
2021/07/06 03:44:51;;;;;;;2.22;2.03;;;17.10;99.90;;;;;;5072755;28;20047;-72
2021/07/06 03:47:16;;;;;;;4.40;1.80;;;17.10;99.90;;;;;;5035657;28;1038794;-71
2021/07/06 03:49:44;;;;;;;3.58;1.70;;;17.10;99.90;;;;;;5072929;28;20033;-72
2021/07/06 03:52:10;;;;;;;5.03;1.83;;;17.20;99.90;;;;;;5077950;28;20028;-73
2021/07/06 03:54:35;;;;;;;1.80;1.70;;;17.20;99.90;;;;;;5079700;28;20025;-72
2021/07/06 03:57:01;;;;;;;1.75;1.65;;;17.20;99.90;;;;;;5078671;28;20025;-73
2021/07/06 03:59:27;;;;;;;2.92;1.38;;;17.30;99.90;;;;;;5073501;28;20080;-73
2021/07/06 04:01:53;;;;;;;1.85;1.75;;;17.40;99.90;;;;;;5072612;28;20016;-72
2021/07/06 04:04:19;;;;;;;1.88;1.70;;;17.40;99.90;;;;;;5072875;28;20036;-73
2021/07/06 04:06:45;;;;;;;4.50;1.92;;;17.40;99.90;;;;;;5076367;28;20026;-72
2021/07/06 04:09:10;;;;;;;4.03;1.98;;;17.40;99.90;;;;;;5082386;28;20032;-73
2021/07/06 04:11:36;;;;;;;1.65;1.55;;;17.50;99.90;;;;;;5074877;28;20028;-72
2021/07/06 04:14:03;;;;;;;3.25;2.05;;;17.50;99.90;;;;;;5085587;28;20024;-72
2021/07/06 04:16:29;;;;;;;1.77;1.67;;;17.60;99.90;;;;;;5071763;28;20028;-72
2021/07/06 04:18:55;;;;;;;1.90;1.80;;;17.50;99.90;;;;;;5073131;28;20024;-73
2021/07/06 04:21:20;;;;;;;2.55;1.73;;;17.60;99.90;;;;;;5072582;28;20025;-72
2021/07/06 04:23:46;;;;;;;1.95;1.85;;;17.60;99.90;;;;;;5071912;28;20038;-72
2021/07/06 04:26:11;;;;;;;2.35;2.15;;;17.60;99.90;;;;;;5072946;28;20042;-72
2021/07/06 04:28:37;;;;;;;3.35;1.75;;;17.60;99.90;;;;;;5072265;28;20444;-72
2021/07/06 04:31:03;;;;;;;2.10;1.90;;;17.60;99.90;;;;;;5072160;28;20027;-72
2021/07/06 04:33:29;;;;;;;3.50;1.95;;;17.60;99.90;;;;;;5072485;28;20044;-72
2021/07/06 04:35:54;;;;;;;2.28;2.05;;;17.60;99.90;;;;;;5072552;28;20017;-71
2021/07/06 04:38:20;;;;;;;2.05;1.88;;;17.70;99.90;;;;;;5071727;28;20029;-71
2021/07/06 04:40:46;;;;;;;4.55;1.90;;;17.60;99.90;;;;;;5072693;28;20043;-71
2021/07/06 04:43:12;;;;;;;5.22;2.08;;;17.60;99.90;;;;;;5071907;28;20063;-71
2021/07/06 04:45:38;;;;;;;3.70;1.80;;;17.60;99.90;;;;;;5054084;28;20060;-71
2021/07/06 04:48:11;;;;;;;2.10;1.95;;;17.60;99.90;;;;;;5072088;28;20048;-74
2021/07/06 04:50:38;;;;;;;2.03;1.63;;;17.70;99.90;;;;;;5048247;28;20098;-72
2021/07/06 04:53:05;;;;;;;3.90;1.80;;;17.60;99.90;;;;;;5072219;28;20020;-72
2021/07/06 04:55:31;;;;;;;2.10;1.90;;;17.70;99.90;;;;;;5072106;28;20033;-72
2021/07/06 04:57:57;;;;;;;1.88;1.77;;;17.70;99.90;;;;;;5071653;28;20020;-71
2021/07/06 05:00:22;;;;;;;3.60;1.83;;;17.70;99.90;;;;;;5083593;28;20024;-72
2021/07/06 05:02:49;;;;;;;2.65;2.30;;;17.70;99.90;;;;;;5074583;28;20020;-71
2021/07/06 05:05:14;;;;;;;4.60;1.70;;;17.70;99.90;;;;;;5071389;28;20071;-71
2021/07/06 05:07:41;;;;;;;4.97;2.42;;;17.80;99.90;;;;;;5083045;28;20067;-72
2021/07/06 05:10:09;;;;;;;2.30;1.83;;;17.80;99.90;;;;;;5074678;28;20024;-72
2021/07/06 05:12:35;;;;;;;3.30;1.88;;;17.80;99.90;;;;;;5071197;28;20056;-72
2021/07/06 05:15:01;;;;;;;2.63;1.85;;;17.80;99.90;;;;;;5073341;28;20056;-72
2021/07/06 05:17:26;;;;;;;1.98;1.80;;;17.80;99.90;;;;;;5084063;28;20463;-71
2021/07/06 05:19:53;;;;;;;3.10;1.85;;;17.90;99.90;;;;;;5075943;28;20056;-72
2021/07/06 05:22:19;;;;;;;2.90;1.83;;;17.90;99.90;;;;;;5076337;28;20051;-72
2021/07/06 05:24:44;;;;;;;2.13;1.85;;;17.90;99.90;;;;;;5074622;28;20028;-72
2021/07/06 05:27:10;;;;;;;1.85;1.75;;;17.90;99.90;;;;;;5071295;28;20032;-72
2021/07/06 05:29:35;;;;;;;2.80;2.00;;;18.00;99.90;;;;;;5075908;28;20017;-71
2021/07/06 05:32:01;;;;;;;2.30;1.83;;;18.00;99.90;;;;;;5071722;28;20111;-72
2021/07/06 05:34:27;;;;;;;2.63;1.90;;;18.00;99.90;;;;;;5075490;28;20021;-71
2021/07/06 05:36:53;;;;;;;3.33;2.05;;;18.10;99.90;;;;;;5085014;28;20021;-71
2021/07/06 05:39:19;;;;;;;4.07;1.58;;;18.00;99.90;;;;;;5077739;28;20016;-71
2021/07/06 05:41:46;;;;;;;2.50;1.83;;;18.10;99.90;;;;;;5072930;28;20023;-71
2021/07/06 05:44:12;;;;;;;4.55;1.70;;;18.10;99.90;;;;;;5071207;28;20021;-71
2021/07/06 05:46:38;;;;;;;3.88;1.70;;;18.20;99.90;;;;;;5069983;28;20511;-72
2021/07/06 05:49:03;;;;;;;4.90;1.48;;;18.20;99.90;;;;;;5072587;28;20052;-72
2021/07/06 05:51:29;;;;;;;4.85;1.30;;;18.30;99.90;;;;;;5076166;28;20023;-72
2021/07/06 05:53:54;;;;;;;1.30;1.20;;;18.30;99.90;;;;;;5073349;28;20013;-72
2021/07/06 05:56:20;;;;;;;6.07;1.58;;;18.30;99.90;;;;;;5077485;28;20028;-72
2021/07/06 05:58:46;;;;;;;3.53;1.40;;;18.40;99.90;;;;;;5072880;28;20024;-73
2021/07/06 06:01:12;;;;;;;3.85;1.63;;;18.50;99.90;;;;;;5070897;28;20024;-73
2021/07/06 06:03:38;;;;;;;2.67;1.63;;;18.50;99.90;;;;;;5070629;28;20024;-72
2021/07/06 06:06:04;;;;;;;3.55;1.50;;;18.60;99.90;;;;;;5070983;28;20042;-72
2021/07/06 06:08:29;;;;;;;5.20;2.00;;;18.60;99.90;;;;;;5072518;28;20055;-72
2021/07/06 06:10:55;;;;;;;1.73;1.63;;;18.70;99.90;;;;;;5081045;28;20073;-72
2021/07/06 06:13:21;;;;;;;2.90;1.67;;;18.70;99.90;;;;;;5074267;28;20020;-72
2021/07/06 06:15:47;;;;;;;2.30;1.30;;;18.80;99.90;;;;;;5072059;28;20031;-72
2021/07/06 06:18:13;;;;;;;4.47;1.92;;;18.80;99.90;;;;;;5070739;28;21140;-72
2021/07/06 06:20:39;;;;;;;3.28;1.38;;;18.80;99.90;;;;;;5080641;28;20098;-72
2021/07/06 06:23:05;;;;;;;2.33;1.52;;;18.90;99.90;;;;;;5080567;28;20103;-72
2021/07/06 06:25:31;;;;;;;3.38;1.67;;;18.90;99.90;;;;;;5073985;28;20110;-72
2021/07/06 06:27:57;;;;;;;5.13;1.58;;;19.00;99.90;;;;;;5070984;28;20020;-72
2021/07/06 06:30:23;;;;;;;4.85;1.35;;;19.10;99.90;;;;;;5073901;28;20029;-73
2021/07/06 06:32:48;;;;;;;2.88;1.50;;;19.10;99.90;;;;;;5086150;28;20024;-72
2021/07/06 06:35:14;;;;;;;2.10;1.50;;;19.20;99.90;;;;;;5090921;28;20103;-72
2021/07/06 06:37:40;;;;;;;1.77;1.50;;;19.30;99.90;;;;;;5085267;28;20079;-73
2021/07/06 06:40:08;;;;;;;4.68;1.60;;;19.30;99.90;;;;;;5085605;28;20081;-74
2021/07/06 06:42:36;;;;;;;3.65;1.13;;;19.30;99.90;;;;;;5074198;28;20021;-73
2021/07/06 06:45:04;;;;;;;2.47;1.67;;;19.40;99.90;;;;;;5073971;28;20029;-72
2021/07/06 06:47:29;;;;;;;1.77;1.30;;;19.40;99.90;;;;;;5073839;28;20059;-72
2021/07/06 06:49:55;;;;;;;3.28;1.20;;;19.40;99.90;;;;;;5076450;28;20020;-75
2021/07/06 06:52:22;;;;;;;4.88;1.25;;;19.40;99.90;;;;;;5073886;28;20017;-73
2021/07/06 06:54:47;;;;;;;1.23;1.13;;;19.40;99.90;;;;;;5074420;28;20029;-74
2021/07/06 06:57:13;;;;;;;4.45;1.13;;;19.50;99.90;;;;;;5076160;28;20074;-74
2021/07/06 06:59:38;;;;;;;2.78;1.20;;;19.50;99.90;;;;;;5090178;28;20487;-75
2021/07/06 07:02:20;;;;;;;2.75;1.38;;;19.60;99.90;;;;;;5092399;28;20027;-74
2021/07/06 07:04:50;;;;;;;5.10;1.55;;;19.60;99.90;;;;;;5104706;28;20068;-74
2021/07/06 07:07:17;;;;;;;;;;;19.70;99.90;;;;;;5101299;28;20490;-75
2021/07/06 07:09:43;;;;;;;2.80;1.80;;;19.70;99.90;;;;;;5080454;28;20322;-74
2021/07/06 07:12:09;;;;;;;2.40;1.70;;;19.70;99.90;;;;;;5076314;28;20039;-73
2021/07/06 07:14:35;;;;;;;6.47;1.60;;;19.70;99.90;;;;;;5093386;28;20020;-73
2021/07/06 07:17:03;;;;;;;2.20;1.52;;;19.70;99.90;;;;;;5083651;28;20036;-73
2021/07/06 07:19:29;;;;;;;12.30;3.80;;;19.70;99.90;;;;;;5090142;28;20031;-73
2021/07/06 07:21:54;;;;;;;4.03;1.75;;;19.70;99.90;;;;;;5088857;28;20016;-73
2021/07/06 07:24:20;;;;;;;2.97;1.55;;;19.70;99.90;;;;;;5089965;28;20084;-73
2021/07/06 07:26:46;;;;;;;6.82;1.73;;;19.90;99.90;;;;;;5089141;28;20068;-73
2021/07/06 07:29:11;;;;;;;3.67;1.58;;;20.00;99.90;;;;;;5091588;28;20047;-74
2021/07/06 07:31:37;;;;;;;2.42;1.40;;;20.10;99.90;;;;;;5092370;28;20016;-74
2021/07/06 07:34:03;;;;;;;6.25;1.88;;;20.10;99.90;;;;;;5091899;28;20016;-73
2021/07/06 07:36:29;;;;;;;2.42;1.67;;;20.10;99.90;;;;;;5082959;28;20150;-75
2021/07/06 07:38:56;;;;;;;7.45;2.17;;;20.20;99.90;;;;;;5078286;28;20024;-73
2021/07/06 07:41:21;;;;;;;1.65;1.45;;;20.30;99.90;;;;;;5076934;28;20021;-72
2021/07/06 07:43:52;;;;;;;3.90;1.67;;;20.40;99.90;;;;;;5083142;28;20022;-73
2021/07/06 07:46:18;;;;;;;4.75;1.63;;;20.50;99.90;;;;;;5078569;28;20055;-73
2021/07/06 07:48:45;;;;;;;1.77;1.50;;;20.50;99.90;;;;;;5084150;28;20037;-73
2021/07/06 07:51:10;;;;;;;6.60;1.55;;;20.60;99.90;;;;;;5079266;28;20029;-73
2021/07/06 07:53:36;;;;;;;5.50;1.98;;;20.70;99.90;;;;;;5063954;28;20032;-73
2021/07/06 07:56:02;;;;;;;5.55;1.30;;;20.80;99.90;;;;;;5081866;28;20016;-72
2021/07/06 07:58:27;;;;;;;3.60;1.17;;;20.90;99.90;;;;;;5079923;28;20028;-72
2021/07/06 08:00:53;;;;;;;4.97;1.20;;;21.10;99.90;;;;;;5082723;28;20494;-73
2021/07/06 08:03:18;;;;;;;1.42;0.90;;;21.20;99.90;;;;;;5078719;28;20461;-73
2021/07/06 08:05:44;;;;;;;2.92;0.90;;;21.20;99.90;;;;;;5092439;28;20097;-72
2021/07/06 08:08:09;;;;;;;2.80;1.35;;;21.30;99.90;;;;;;5086872;28;20131;-73
2021/07/06 08:10:35;;;;;;;4.03;0.93;;;21.30;99.90;;;;;;5075935;28;20028;-72
2021/07/06 08:13:00;;;;;;;3.35;1.45;;;21.20;99.90;;;;;;5087024;28;20020;-73
2021/07/06 08:15:26;;;;;;;4.88;1.00;;;21.00;99.90;;;;;;5072623;28;20028;-72
2021/07/06 08:17:51;;;;;;;2.80;0.95;;;20.80;99.90;;;;;;5075157;28;20070;-74
2021/07/06 08:20:17;;;;;;;3.67;1.10;;;20.60;99.90;;;;;;5086978;28;20028;-74
2021/07/06 08:22:43;;;;;;;1.90;0.90;;;20.50;99.90;;;;;;5076243;28;20036;-73
2021/07/06 08:25:09;;;;;;;9.38;1.42;;;20.30;99.90;;;;;;5080497;28;20101;-72
2021/07/06 08:27:38;;;;;;;10.55;1.10;;;20.20;99.90;;;;;;5076389;28;20031;-73
2021/07/06 08:30:05;;;;;;;4.55;1.00;;;20.10;99.90;;;;;;5082017;28;20031;-73
2021/07/06 08:32:32;;;;;;;3.80;1.00;;;20.00;99.90;;;;;;5074650;28;20032;-73
2021/07/06 08:35:00;;;;;;;4.55;1.25;;;19.90;99.90;;;;;;5057346;28;20055;-72
2021/07/06 08:37:25;;;;;;;7.80;1.10;;;20.00;99.90;;;;;;5075285;28;20100;-73
2021/07/06 08:39:51;;;;;;;11.13;1.38;;;20.20;99.90;;;;;;5074825;28;20453;-73
2021/07/06 08:42:17;;;;;;;2.63;1.00;;;20.20;99.90;;;;;;5078665;28;20027;-73
2021/07/06 08:44:42;;;;;;;14.93;1.30;;;20.30;99.90;;;;;;5082757;28;20036;-72
2021/07/06 08:47:13;;;;;;;5.55;1.35;;;20.50;99.90;;;;;;5084373;28;20106;-68
2021/07/06 08:49:41;;;;;;;6.07;1.23;;;20.50;99.90;;;;;;5071728;28;20032;-73
2021/07/06 08:52:10;;;;;;;3.58;1.20;;;20.60;99.90;;;;;;5071987;28;20031;-73
2021/07/06 08:54:36;;;;;;;3.15;1.20;;;20.80;99.90;;;;;;5071915;28;20024;-73
2021/07/06 08:57:01;;;;;;;2.50;1.02;;;21.00;99.90;;;;;;5071669;28;20464;-73
2021/07/06 08:59:27;;;;;;;4.75;1.15;;;21.20;99.90;;;;;;5072213;28;20024;-73
2021/07/06 09:01:53;;;;;;;5.47;1.40;;;21.20;99.90;;;;;;5072253;28;20028;-73
2021/07/06 09:04:18;;;;;;;9.25;1.33;;;21.20;99.90;;;;;;5071334;28;20464;-74
2021/07/06 09:06:57;;;;;;;4.07;1.00;;;21.20;99.90;;;;;;5075923;28;20016;-73
2021/07/06 09:09:30;;;;;;;5.20;1.52;;;21.10;99.90;;;;;;5080229;28;20037;-73
2021/07/06 09:11:57;;;;;;;8.90;1.50;;;21.00;99.90;;;;;;5071644;28;20175;-74
2021/07/06 09:14:28;;;;;;;8.50;1.38;;;21.10;99.90;;;;;;5072053;28;20024;-74
2021/07/06 09:17:15;;;;;;;2.97;1.00;;;21.10;99.90;;;;;;5071878;28;20480;-73
2021/07/06 09:19:44;;;;;;;6.72;1.27;;;21.30;99.90;;;;;;5071159;28;20117;-73
2021/07/06 09:22:12;;;;;;;3.55;1.30;;;21.50;99.90;;;;;;5072184;28;20059;-73
2021/07/06 09:24:39;;;;;;;8.80;1.17;;;21.70;99.90;;;;;;5071348;28;20032;-74
2021/07/06 09:27:24;;;;;;;6.38;1.23;;;21.70;99.90;;;;;;5085994;28;20024;-74
2021/07/06 09:30:08;;;;;;;3.70;1.23;;;21.70;99.90;;;;;;5071849;28;20032;-73
2021/07/06 09:32:35;;;;;;;5.80;0.80;;;21.60;99.90;;;;;;5071578;28;20120;-74
2021/07/06 09:35:11;;;;;;;6.65;1.10;;;21.60;99.90;;;;;;5071619;28;20055;-74
2021/07/06 09:38:04;;;;;;;10.60;1.45;;;21.60;99.90;;;;;;5071241;28;20024;-74
2021/07/06 09:40:34;;;;;;;7.45;1.40;;;21.40;99.90;;;;;;5074178;28;20024;-74
2021/07/06 09:43:20;;;;;;;11.93;1.48;;;21.30;99.90;;;;;;5070335;28;20055;-74
2021/07/06 09:45:54;;;;;;;5.97;1.10;;;21.20;99.90;;;;;;5078191;28;20032;-72
2021/07/06 09:48:20;;;;;;;7.05;1.38;;;21.20;99.90;;;;;;5078863;28;20118;-74
2021/07/06 09:50:46;;;;;;;6.22;1.25;;;21.00;99.90;;;;;;5073148;28;20017;-73
2021/07/06 09:53:31;;;;;;;7.72;1.17;;;20.90;99.90;;;;;;5070945;28;20028;-74
2021/07/06 09:55:58;;;;;;;6.57;1.27;;;20.90;99.90;;;;;;5074707;28;20027;-73
2021/07/06 09:58:24;;;;;;;13.90;1.25;;;21.00;99.90;;;;;;5072501;28;20021;-74
2021/07/06 10:00:51;;;;;;;6.13;1.42;;;21.00;99.90;;;;;;5085546;28;20021;-73
2021/07/06 10:03:20;;;;;;;13.15;1.00;;;21.10;99.90;;;;;;5071803;28;20023;-74
2021/07/06 10:05:48;;;;;;;6.60;1.50;;;21.20;99.90;;;;;;5080710;28;20063;-73
2021/07/06 10:08:14;;;;;;;8.35;1.02;;;21.20;99.90;;;;;;5077776;28;20021;-74
2021/07/06 10:10:40;;;;;;;5.60;1.30;;;21.20;99.90;;;;;;5081690;28;20484;-74
2021/07/06 10:13:05;;;;;;;7.00;1.30;;;21.20;99.90;;;;;;5068511;28;20096;-74
2021/07/06 10:15:32;;;;;;;5.45;0.90;;;21.10;99.90;;;;;;5074232;28;20161;-74
2021/07/06 10:18:04;;;;;;;6.53;1.38;;;21.00;99.90;;;;;;5086517;28;20074;-74
2021/07/06 10:20:30;;;;;;;6.88;1.10;;;21.00;99.90;;;;;;5075387;28;20043;-72
2021/07/06 10:23:01;;;;;;;4.97;1.00;;;21.10;99.90;;;;;;5076633;28;20091;-72
2021/07/06 10:25:30;;;;;;;11.77;2.33;;;21.10;99.90;;;;;;5082022;28;20097;-73
2021/07/06 10:28:00;;;;;;;4.40;1.02;;;21.20;99.90;;;;;;5080410;28;20024;-73
2021/07/06 10:30:42;;;;;;;9.55;1.42;;;21.30;99.90;;;;;;5091963;28;20113;-73
2021/07/06 10:33:14;;;;;;;5.35;1.10;;;21.50;99.80;;;;;;5081953;28;20025;-72
2021/07/06 10:35:40;;;;;;;7.20;1.90;;;21.60;99.50;;;;;;5080898;28;20016;-73
2021/07/06 10:38:44;;;;;;;7.15;1.73;;;21.60;98.90;;;;;;5080392;28;20031;-74
2021/07/06 10:41:14;;;;;;;5.85;1.75;;;21.60;98.50;;;;;;5086966;28;20032;-73
2021/07/06 10:43:42;;;;;;;8.20;1.38;;;21.50;99.20;;;;;;5083215;28;20024;-72
2021/07/06 10:46:20;;;;;;;6.45;1.10;;;21.40;99.40;;;;;;5079371;28;20495;-73
2021/07/06 10:48:56;;;;;;;5.35;1.42;;;21.40;99.20;;;;;;5083587;28;20157;-73
2021/07/06 10:51:37;;;;;;;5.70;1.15;;;21.50;99.50;;;;;;5091472;28;20446;-74
2021/07/06 10:54:07;;;;;;;5.30;1.48;;;21.60;99.00;;;;;;5091349;28;20031;-73
2021/07/06 10:56:34;;;;;;;9.10;2.23;;;21.70;99.00;;;;;;5092125;28;20429;-73
2021/07/06 10:59:05;;;;;;;3.50;0.93;;;21.70;98.90;;;;;;5093348;28;20043;-72
2021/07/06 11:01:36;;;;;;;6.20;1.17;;;21.60;98.30;;;;;;5089285;28;20031;-72
2021/07/06 11:04:09;;;;;;;4.15;1.33;;;21.40;98.70;;;;;;5087863;28;20020;-71
2021/07/06 11:06:47;;;;;;;2.33;1.13;;;21.40;99.10;;;;;;5089223;28;20028;-73
2021/07/06 11:09:27;;;;;;;4.30;1.08;;;21.30;99.00;;;;;;5091492;28;20468;-74
2021/07/06 11:11:52;;;;;;;8.63;1.23;;;21.40;99.30;;;;;;5091644;28;20042;-73
2021/07/06 11:14:23;;;;;;;6.55;1.27;;;21.50;98.30;;;;;;5090834;28;20035;-73
2021/07/06 11:17:01;;;;;;;5.38;1.67;;;21.70;98.20;;;;;;5087566;28;20020;-73
2021/07/06 11:19:38;;;;;;;4.90;1.73;;;21.70;98.30;;;;;;5090668;28;20028;-72
2021/07/06 11:22:21;;;;;;;6.88;0.95;;;21.80;97.70;;;;;;5091703;28;20028;-72
2021/07/06 11:24:48;;;;;;;12.77;1.50;;;21.90;97.90;;;;;;5092167;28;20422;-74
2021/07/06 11:27:52;;;;;;;6.57;1.38;;;22.10;98.10;;;;;;5093185;28;20031;-73
2021/07/06 11:30:32;;;;;;;2.83;1.10;;;22.20;97.40;;;;;;5087157;28;20017;-74
2021/07/06 11:33:06;;;;;;;4.65;1.08;;;22.40;97.60;;;;;;5089383;28;20540;-73
2021/07/06 11:35:37;;;;;;;3.53;0.70;;;22.60;97.50;;;;;;5085216;28;20024;-73
2021/07/06 11:38:11;;;;;;;3.58;1.00;;;22.70;97.00;;;;;;5088979;28;20052;-73
2021/07/06 11:40:38;;;;;;;5.38;1.27;;;22.80;96.70;;;;;;5091374;28;20487;-72
2021/07/06 11:43:04;;;;;;;9.05;1.25;;;22.70;96.70;;;;;;5092977;28;20106;-73
2021/07/06 11:45:30;;;;;;;5.97;1.08;;;22.70;97.30;;;;;;5091719;28;20042;-72
2021/07/06 11:48:06;;;;;;;5.80;1.60;;;22.50;97.60;;;;;;5091141;28;20547;-73
2021/07/06 11:50:32;;;;;;;7.53;1.50;;;22.40;97.30;;;;;;5078238;28;20029;-72
2021/07/06 11:52:58;;;;;;;4.70;1.40;;;22.30;97.70;;;;;;5076996;28;20020;-73
2021/07/06 11:55:30;;;;;;;6.78;1.38;;;22.10;97.70;;;;;;5079815;28;20385;-72
2021/07/06 11:58:03;;;;;;;12.85;1.85;;;22.00;97.80;;;;;;5077848;28;20421;-73
2021/07/06 12:00:31;;;;;;;11.85;1.48;;;21.80;98.20;;;;;;5077907;28;20577;-73
2021/07/06 12:03:18;;;;;;;2.35;1.00;;;21.80;98.50;;;;;;5102871;28;20031;-73
2021/07/06 12:05:52;;;;;;;8.85;1.02;;;21.80;97.80;;;;;;5106502;28;20028;-72
2021/07/06 12:08:23;;;;;;;3.75;1.30;;;21.80;98.20;;;;;;5103044;28;20023;-72
2021/07/06 12:11:33;;;;;;;8.45;1.50;;;21.70;98.30;;;;;;5089021;28;20123;-73
2021/07/06 12:14:01;;;;;;;9.60;2.00;;;21.60;98.40;;;;;;5095652;28;20062;-72
2021/07/06 12:16:34;;;;;;;2.55;1.20;;;21.50;98.70;;;;;;5102260;28;20747;-74
2021/07/06 12:19:01;;;;;;;6.30;1.40;;;21.30;99.20;;;;;;5095971;28;20020;-73
2021/07/06 12:21:26;;;;;;;10.05;1.63;;;21.10;99.10;;;;;;5108952;28;20043;-73
2021/07/06 12:23:53;;;;;;;13.70;2.22;;;21.00;99.10;;;;;;5106239;28;20463;-72
2021/07/06 12:26:22;;;;;;;4.90;1.15;;;21.00;98.90;;;;;;5107097;28;20518;-74
2021/07/06 12:28:48;;;;;;;7.93;1.42;;;21.20;99.80;;;;;;5103693;28;20066;-74
2021/07/06 12:31:14;;;;;;;5.10;2.15;;;21.50;99.30;;;;;;5109713;28;20028;-74
2021/07/06 12:33:42;;;;;;;7.63;1.27;;;21.80;99.20;;;;;;5107672;28;20039;-75
2021/07/06 12:36:07;;;;;;;5.95;1.50;;;22.00;99.00;;;;;;5107338;28;20034;-74
2021/07/06 12:38:33;;;;;;;13.23;2.10;;;22.10;98.30;;;;;;5107960;28;20027;-74
2021/07/06 12:40:59;;;;;;;7.05;1.45;;;22.10;98.20;;;;;;5106924;28;20098;-73
2021/07/06 12:43:24;;;;;;;3.78;1.13;;;21.90;98.00;;;;;;5110174;28;20047;-75
2021/07/06 12:45:50;;;;;;;7.95;1.48;;;21.80;97.70;;;;;;5106234;28;20033;-73
2021/07/06 12:48:43;;;;;;;6.50;1.38;;;21.80;98.30;;;;;;5094000;28;20046;-72
2021/07/06 12:51:10;;;;;;;5.00;1.05;;;21.70;98.70;;;;;;5081818;28;20024;-72
2021/07/06 12:53:35;;;;;;;3.38;1.17;;;21.60;99.10;;;;;;5083449;28;20024;-72